77.9°F
Current conditions from King Hill
Updated every 5 minutes
 
  Sunday September 21, 2014

Station Historical Data
Daily Summary for September 19, 2011 Units:  Metric    English   Both
« Previous Day
Next Day »
Daily Weekly Monthly Yearly Custom
  High: Low: Average:
Temperature: 19.7 °C 3.2 °C 11.6 °C
Dew Point: 10.7 °C 2.4 °C 6.9 °C
Humidity: 96% 50% 76%
Wind Speed: 11.3km/h 0km/h 3.5km/h
Wind Gust: 24.1km/h - -
Wind- - SW
Pressure: 1028 hPa 1015.8 hPa -
Precipitation: 0 mm    
Historical Graphs
 
 
Tabular Data for September 19, 2011
Time Temperature Dew Point Pressure Wind Wind Speed Wind Gust Humidity Daily Rainfall
00:00 5.9 °C 5 °C 1028 hPa Calm     94% 0 mm
00:05 5.8 °C 4.8 °C 1027.7 hPa Calm     93% 0 mm
00:10 5.7 °C 4.7 °C 1027.7 hPa Calm     93% 0 mm
00:15 5.6 °C 4.5 °C 1027.7 hPa Calm     93% 0 mm
00:20 5.4 °C 4.4 °C 1027.7 hPa Calm     93% 0 mm
00:25 5.3 °C 4.3 °C 1027.7 hPa Calm     93% 0 mm
00:30 5.3 °C 4.3 °C 1027.7 hPa Calm     93% 0 mm
00:35 5.3 °C 4.2 °C 1027.7 hPa Calm     93% 0 mm
00:40 5.2 °C 4.2 °C 1027.7 hPa Calm     93% 0 mm
00:45 5.2 °C 4.2 °C 1027.7 hPa Calm     93% 0 mm
00:50 5.3 °C 4.4 °C 1027.7 hPa Calm     94% 0 mm
00:55 5.2 °C 4.3 °C 1027.7 hPa Calm     94% 0 mm
01:00 5.2 °C 4.1 °C 1027.7 hPa Calm     93% 0 mm
01:10 5 °C 3.9 °C 1027.7 hPa Calm     93% 0 mm
01:15 4.9 °C 4.1 °C 1027.7 hPa Calm     94% 0 mm
01:20 4.8 °C 3.9 °C 1027.7 hPa Calm     94% 0 mm
01:25 4.7 °C 3.7 °C 1027.7 hPa Calm     93% 0 mm
01:35 4.8 °C 3.9 °C 1027.7 hPa Calm     94% 0 mm
01:40 4.8 °C 3.9 °C 1027.7 hPa Calm     94% 0 mm
01:45 4.8 °C 3.9 °C 1027.7 hPa Calm     94% 0 mm
01:50 4.7 °C 3.8 °C 1027.7 hPa Calm     94% 0 mm
02:00 4.6 °C 3.7 °C 1027.3 hPa Calm     94% 0 mm
02:10 4.5 °C 3.6 °C 1027.3 hPa Calm     94% 0 mm
02:15 4.4 °C 3.5 °C 1027.3 hPa Calm     94% 0 mm
02:20 4.3 °C 3.4 °C 1027.3 hPa Calm     94% 0 mm
02:25 4.3 °C 3.4 °C 1027.3 hPa Calm     94% 0 mm
02:30 4.3 °C 3.4 °C 1027 hPa Calm     94% 0 mm
02:35 4.2 °C 3.3 °C 1027 hPa Calm     94% 0 mm
02:40 4.2 °C 3.3 °C 1027 hPa Calm     94% 0 mm
02:50 4.2 °C 3.3 °C 1027 hPa Calm     94% 0 mm
02:55 4.2 °C 3.3 °C 1027 hPa Calm     94% 0 mm
03:00 4.2 °C 3.3 °C 1027 hPa Calm     94% 0 mm
03:05 4.2 °C 3.3 °C 1027 hPa Calm     94% 0 mm
03:10 4.2 °C 3.3 °C 1026.6 hPa Calm     94% 0 mm
03:15 4.1 °C 3.2 °C 1026.6 hPa Calm     94% 0 mm
03:25 4.1 °C 3.2 °C 1026.6 hPa Calm     94% 0 mm
03:30 4.1 °C 3.2 °C 1026.6 hPa Calm     94% 0 mm
03:35 4.1 °C 3.2 °C 1026.6 hPa Calm     94% 0 mm
03:45 4 °C 3.1 °C 1026.6 hPa Calm     94% 0 mm
03:50 3.9 °C 3.1 °C 1026.6 hPa Calm     94% 0 mm
03:55 4.1 °C 3.2 °C 1026.6 hPa Calm     94% 0 mm
04:00 4 °C 3.1 °C 1026.6 hPa Calm     94% 0 mm
04:05 4 °C 3.1 °C 1026.6 hPa Calm     94% 0 mm
04:10 3.9 °C 3.1 °C 1026.6 hPa Calm     94% 0 mm
04:15 3.9 °C 3.1 °C 1026.6 hPa Calm     94% 0 mm
04:20 4 °C 3.3 °C 1026.6 hPa Calm     95% 0 mm
04:25 3.9 °C 3.2 °C 1026.6 hPa Calm     95% 0 mm
04:30 3.8 °C 3.1 °C 1026.6 hPa Calm     95% 0 mm
04:40 3.8 °C 3.1 °C 1026.6 hPa Calm     95% 0 mm
04:45 3.9 °C 3.2 °C 1026.6 hPa Calm     95% 0 mm
04:50 3.9 °C 3.2 °C 1026.6 hPa Calm     95% 0 mm
04:55 3.9 °C 3.2 °C 1026.6 hPa Calm     95% 0 mm
05:00 3.8 °C 3.1 °C 1026.6 hPa Calm     95% 0 mm
05:05 3.8 °C 3.1 °C 1026.6 hPa Calm     95% 0 mm
05:10 3.8 °C 3.1 °C 1026.6 hPa Calm     95% 0 mm
05:15 3.8 °C 3.1 °C 1026.6 hPa Calm     95% 0 mm
05:20 3.7 °C 3 °C 1026.6 hPa Calm     95% 0 mm
05:30 3.5 °C 2.8 °C 1026.3 hPa Calm     95% 0 mm
05:35 3.5 °C 2.8 °C 1026.3 hPa Calm     95% 0 mm
05:40 3.4 °C 2.6 °C 1026.3 hPa Calm     94% 0 mm
05:45 3.4 °C 2.7 °C 1026.3 hPa Calm     95% 0 mm
05:50 3.4 °C 2.7 °C 1026.3 hPa Calm     95% 0 mm
05:55 3.4 °C 2.7 °C 1026.3 hPa Calm     95% 0 mm
06:00 3.3 °C 2.6 °C 1026.3 hPa Calm     95% 0 mm
06:05 3.2 °C 2.5 °C 1026.3 hPa Calm     95% 0 mm
06:10 3.2 °C 2.4 °C 1026.6 hPa Calm     95% 0 mm
06:15 3.3 °C 2.6 °C 1026.6 hPa Calm     95% 0 mm
06:25 3.5 °C 2.8 °C 1026.3 hPa Calm     95% 0 mm
06:35 3.3 °C 2.6 °C 1026.3 hPa Calm     95% 0 mm
06:40 3.3 °C 2.6 °C 1026.3 hPa Calm     95% 0 mm
06:45 3.4 °C 2.7 °C 1026.3 hPa Calm     95% 0 mm
06:50 3.3 °C 2.6 °C 1026.3 hPa Calm     95% 0 mm
06:55 3.4 °C 2.7 °C 1026.3 hPa Calm     95% 0 mm
07:00 3.4 °C 2.7 °C 1026.3 hPa Calm     95% 0 mm
07:05 3.5 °C 2.8 °C 1026.3 hPa Calm     95% 0 mm
07:10 3.6 °C 2.8 °C 1026 hPa Calm     95% 0 mm
07:15 3.7 °C 3 °C 1026 hPa Calm     95% 0 mm
07:20 3.8 °C 3.1 °C 1026 hPa Calm     95% 0 mm
07:30 4 °C 3.3 °C 1026.3 hPa Calm     95% 0 mm
07:35 4.1 °C 3.4 °C 1026 hPa Calm     95% 0 mm
07:40 4.2 °C 3.5 °C 1026 hPa Calm     95% 0 mm
07:45 4.4 °C 3.7 °C 1026 hPa Calm     95% 0 mm
07:50 4.5 °C 3.8 °C 1026 hPa Calm     95% 0 mm
07:55 4.6 °C 3.9 °C 1026 hPa Calm     95% 0 mm
08:00 4.7 °C 4 °C 1026 hPa Calm     95% 0 mm
08:05 4.9 °C 4.2 °C 1026 hPa Calm     95% 0 mm
08:15 5.3 °C 4.6 °C 1026 hPa Calm     95% 0 mm
08:20 5.8 °C 5.2 °C 1026 hPa Calm     96% 0 mm
08:25 6.8 °C 6.2 °C 1026 hPa Calm     96% 0 mm
08:30 7.9 °C 7.3 °C 1025.6 hPa Calm     96% 0 mm
08:35 8.8 °C 8.2 °C 1025.6 hPa Calm     96% 0 mm
08:40 9.3 °C 8.7 °C 1025.6 hPa Calm     96% 0 mm
08:45 9.8 °C 9.2 °C 1025.6 hPa Calm     96% 0 mm
08:50 10.2 °C 9.6 °C 1025.6 hPa Calm     96% 0 mm
08:55 10.4 °C 9.8 °C 1025.6 hPa Calm     96% 0 mm
09:00 10.8 °C 10.2 °C 1025.6 hPa Calm     96% 0 mm
09:05 11.1 °C 10.4 °C 1025.3 hPa Calm     96% 0 mm
09:10 11.2 °C 10.6 °C 1025.3 hPa Calm     96% 0 mm
09:15 11.3 °C 10.7 °C 1025.3 hPa Calm     96% 0 mm
09:20 11.2 °C 10.6 °C 1025.3 hPa Calm   1.6 km/h 96% 0 mm
09:25 11.5 °C 10.7 °C 1025.3 hPa WSW 1.6 km/h 8 km/h 95% 0 mm
09:30 11.9 °C 10.6 °C 1025.3 hPa SW 1.6 km/h 8 km/h 92% 0 mm
09:35 12.3 °C 10.4 °C 1025.3 hPa Calm   8 km/h 88% 0 mm
09:40 13.1 °C 9.9 °C 1025.3 hPa SW 3.2 km/h 8 km/h 81% 0 mm
09:45 13.4 °C 9.9 °C 1025.3 hPa Calm   6.4 km/h 79% 0 mm
09:50 14.1 °C 9.5 °C 1025.3 hPa SW 1.6 km/h 6.4 km/h 74% 0 mm
09:55 14.5 °C 10.1 °C 1025.3 hPa Calm   6.4 km/h 75% 0 mm
10:00 14.8 °C 9.2 °C 1025.3 hPa SSW 4.8 km/h 6.4 km/h 69% 0 mm
10:05 14.8 °C 8.5 °C 1025.3 hPa SW 4.8 km/h 9.7 km/h 66% 0 mm
10:10 14.4 °C 8.4 °C 1025.3 hPa SSW 1.6 km/h 11.3 km/h 67% 0 mm
10:15 14.7 °C 8.2 °C 1025.3 hPa SW 1.6 km/h 11.3 km/h 65% 0 mm
10:20 15 °C 8.5 °C 1025.3 hPa SSW 3.2 km/h 11.3 km/h 65% 0 mm
10:25 15.3 °C 8.3 °C 1025.3 hPa Calm   11.3 km/h 63% 0 mm
10:30 15.5 °C 8.9 °C 1025.3 hPa SW 6.4 km/h 11.3 km/h 65% 0 mm
10:35 15.6 °C 8.8 °C 1025.3 hPa Calm   11.3 km/h 64% 0 mm
10:40 15.7 °C 9.3 °C 1025.3 hPa SSW 1.6 km/h 14.5 km/h 66% 0 mm
10:45 15.8 °C 8.1 °C 1025.3 hPa SW 6.4 km/h 14.5 km/h 60% 0 mm
10:50 15.9 °C 9.2 °C 1024.9 hPa SW 1.6 km/h 12.9 km/h 64% 0 mm
10:55 16.2 °C 8.7 °C 1024.9 hPa SW 3.2 km/h 11.3 km/h 61% 0 mm
11:00 16.6 °C 8.8 °C 1024.9 hPa SW 4.8 km/h 16.1 km/h 60% 0 mm
11:05 16.7 °C 7.8 °C 1024.6 hPa SW 1.6 km/h 16.1 km/h 56% 0 mm
11:10 16.7 °C 7.8 °C 1024.6 hPa SW 8 km/h 14.5 km/h 56% 0 mm
11:15 16.6 °C 8.3 °C 1024.6 hPa West 1.6 km/h 14.5 km/h 58% 0 mm
11:20 16.8 °C 7.9 °C 1024.3 hPa Calm   11.3 km/h 56% 0 mm
11:25 16.8 °C 7.9 °C 1024.3 hPa SW 3.2 km/h 14.5 km/h 56% 0 mm
11:30 16.8 °C 7.9 °C 1024.3 hPa WSW 3.2 km/h 14.5 km/h 56% 0 mm
11:40 16.9 °C 7.8 °C 1024.3 hPa Calm   12.9 km/h 55% 0 mm
11:45 17.2 °C 9.2 °C 1024.3 hPa Calm   11.3 km/h 59% 0 mm
11:50 17.3 °C 8.5 °C 1023.9 hPa West 3.2 km/h 12.9 km/h 56% 0 mm
11:55 17.3 °C 8.2 °C 1023.9 hPa SSW 4.8 km/h 12.9 km/h 55% 0 mm
12:00 17.2 °C 8.6 °C 1023.9 hPa SSW 1.6 km/h 12.9 km/h 57% 0 mm
12:05 17.4 °C 8.6 °C 1023.9 hPa WSW 1.6 km/h 14.5 km/h 56% 0 mm
12:10 17.3 °C 8.5 °C 1023.9 hPa SW 6.4 km/h 16.1 km/h 56% 0 mm
12:15 17.3 °C 8.2 °C 1023.6 hPa SW 1.6 km/h 16.1 km/h 55% 0 mm
12:20 17.5 °C 8.1 °C 1023.6 hPa WSW 3.2 km/h 16.1 km/h 54% 0 mm
12:25 17.7 °C 8.8 °C 1023.2 hPa South 3.2 km/h 16.1 km/h 56% 0 mm
12:30 17.9 °C 8.4 °C 1023.2 hPa SW 4.8 km/h 14.5 km/h 54% 0 mm
12:35 18.1 °C 8.6 °C 1023.2 hPa SE 3.2 km/h 14.5 km/h 54% 0 mm
12:40 18 °C 8.8 °C 1023.2 hPa SSW 6.4 km/h 17.7 km/h 55% 0 mm
12:45 18.1 °C 8.1 °C 1022.9 hPa South 3.2 km/h 17.7 km/h 52% 0 mm
12:50 18.1 °C 8.4 °C 1022.9 hPa South 3.2 km/h 12.9 km/h 53% 0 mm
12:55 18.2 °C 9 °C 1022.9 hPa WSW 3.2 km/h 12.9 km/h 55% 0 mm
13:00 18.3 °C 8.9 °C 1022.9 hPa SW 4.8 km/h 16.1 km/h 54% 0 mm
13:05 18.4 °C 8.4 °C 1022.6 hPa SSW 1.6 km/h 16.1 km/h 52% 0 mm
13:10 18.3 °C 8 °C 1022.6 hPa SE 6.4 km/h 14.5 km/h 51% 0 mm
13:15 18.2 °C 9.1 °C 1022.6 hPa NW 1.6 km/h 16.1 km/h 55% 0 mm
13:20 18.4 °C 8.9 °C 1022.2 hPa West 3.2 km/h 16.1 km/h 54% 0 mm
13:25 18.3 °C 8.9 °C 1022.2 hPa SW 1.6 km/h 12.9 km/h 54% 0 mm
13:30 18.5 °C 9 °C 1022.2 hPa SSW 3.2 km/h 17.7 km/h 54% 0 mm
13:35 18.5 °C 9.3 °C 1022.2 hPa WSW 3.2 km/h 17.7 km/h 55% 0 mm
13:40 18.6 °C 8.6 °C 1021.9 hPa West 4.8 km/h 17.7 km/h 52% 0 mm
13:45 18.9 °C 9.1 °C 1021.9 hPa SSE 1.6 km/h 17.7 km/h 53% 0 mm
13:50 18.9 °C 8.6 °C 1021.9 hPa SW 4.8 km/h 17.7 km/h 51% 0 mm
13:55 19 °C 9.5 °C 1021.6 hPa West 4.8 km/h 17.7 km/h 54% 0 mm
14:00 19 °C 8.9 °C 1021.6 hPa SW 1.6 km/h 16.1 km/h 52% 0 mm
14:05 18.8 °C 9.6 °C 1021.2 hPa West 1.6 km/h 16.1 km/h 55% 0 mm
14:10 18.9 °C 9.9 °C 1021.2 hPa WSW 1.6 km/h 12.9 km/h 56% 0 mm
14:15 19.1 °C 9.1 °C 1021.2 hPa WSW 4.8 km/h 14.5 km/h 52% 0 mm
14:20 19.3 °C 10 °C 1021.2 hPa SW 6.4 km/h 14.5 km/h 55% 0 mm
14:25 19.4 °C 9.8 °C 1020.9 hPa WSW 6.4 km/h 14.5 km/h 54% 0 mm
14:30 19.4 °C 9.9 °C 1020.9 hPa Calm   11.3 km/h 54% 0 mm
14:40 19.7 °C 9.6 °C 1020.9 hPa SW 8 km/h 16.1 km/h 52% 0 mm
14:45 19.4 °C 9.6 °C 1020.9 hPa SE 3.2 km/h 14.5 km/h 53% 0 mm
14:55 19.4 °C 9.3 °C 1020.5 hPa SW 1.6 km/h 14.5 km/h 52% 0 mm
15:00 19.5 °C 9.1 °C 1020.5 hPa SW 8 km/h 14.5 km/h 51% 0 mm
15:05 19.3 °C 9.2 °C 1020.5 hPa SW 4.8 km/h 14.5 km/h 52% 0 mm
15:10 19.5 °C 9.9 °C 1020.5 hPa WSW 4.8 km/h 14.5 km/h 54% 0 mm
15:15 19.7 °C 9.6 °C 1020.2 hPa SW 4.8 km/h 12.9 km/h 52% 0 mm
15:20 19.5 °C 8.8 °C 1020.2 hPa SW 4.8 km/h 12.9 km/h 50% 0 mm
15:25 19.3 °C 9.2 °C 1020.2 hPa WSW 1.6 km/h 11.3 km/h 52% 0 mm
15:30 19.3 °C 9.4 °C 1020.2 hPa WSW 1.6 km/h 9.7 km/h 53% 0 mm
15:35 19.4 °C 9 °C 1019.9 hPa SW 4.8 km/h 11.3 km/h 51% 0 mm
15:40 19.4 °C 10.7 °C 1019.9 hPa Calm   14.5 km/h 57% 0 mm
15:45 19.7 °C 10.1 °C 1019.9 hPa Calm   14.5 km/h 54% 0 mm
15:50 19.6 °C 8.8 °C 1019.9 hPa SW 8 km/h 16.1 km/h 50% 0 mm
15:55 19.5 °C 9.1 °C 1019.9 hPa Calm   16.1 km/h 51% 0 mm
16:00 19.7 °C 8.9 °C 1019.5 hPa SW 11.3 km/h 19.3 km/h 50% 0 mm
16:05 19.2 °C 8.8 °C 1019.5 hPa WSW 9.7 km/h 19.3 km/h 51% 0 mm
16:10 19.2 °C 9.7 °C 1019.5 hPa SW 4.8 km/h 16.1 km/h 54% 0 mm
16:15 18.9 °C 9.2 °C 1019.5 hPa SW 4.8 km/h 12.9 km/h 53% 0 mm
16:20 18.4 °C 9 °C 1019.2 hPa SW 1.6 km/h 11.3 km/h 54% 0 mm
16:25 18.1 °C 8.7 °C 1019.2 hPa SW 6.4 km/h 14.5 km/h 54% 0 mm
16:30 18.1 °C 9.4 °C 1019.2 hPa SSW 1.6 km/h 14.5 km/h 57% 0 mm
16:40 18.6 °C 9.7 °C 1019.2 hPa SW 1.6 km/h 11.3 km/h 56% 0 mm
16:45 18.6 °C 9.4 °C 1019.2 hPa SW 4.8 km/h 14.5 km/h 55% 0 mm
16:50 18.1 °C 8.9 °C 1018.8 hPa Calm   14.5 km/h 55% 0 mm
16:55 17.7 °C 9.1 °C 1018.8 hPa Calm   11.3 km/h 57% 0 mm
17:00 17.6 °C 9.2 °C 1018.8 hPa Calm   11.3 km/h 58% 0 mm
17:05 17.6 °C 9.3 °C 1018.8 hPa Calm   11.3 km/h 58% 0 mm
17:10 17.8 °C 9.4 °C 1018.5 hPa SW 1.6 km/h 11.3 km/h 58% 0 mm
17:15 17.8 °C 9.7 °C 1018.5 hPa Calm   8 km/h 59% 0 mm
17:20 17.7 °C 9.3 °C 1018.5 hPa SW 3.2 km/h 8 km/h 58% 0 mm
17:25 17.7 °C 9.6 °C 1018.5 hPa Calm   8 km/h 59% 0 mm
17:30 17.6 °C 9.5 °C 1018.2 hPa Calm   8 km/h 59% 0 mm
17:40 16.9 °C 8.9 °C 1018.2 hPa Calm   8 km/h 59% 0 mm
17:45 16.9 °C 9.6 °C 1018.2 hPa Calm   8 km/h 62% 0 mm
17:50 16.7 °C 9.4 °C 1018.2 hPa Calm   1.6 km/h 62% 0 mm
17:55 16.6 °C 9.5 °C 1018.5 hPa SSW 1.6 km/h 8 km/h 63% 0 mm
18:00 16.3 °C 9.3 °C 1018.2 hPa Calm   8 km/h 63% 0 mm
18:05 16 °C 10.1 °C 1018.2 hPa Calm   4.8 km/h 68% 0 mm
18:10 15.6 °C 10.3 °C 1018.2 hPa Calm   1.6 km/h 71% 0 mm
18:15 15 °C 10 °C 1018.2 hPa Calm   1.6 km/h 72% 0 mm
18:20 14.7 °C 10.1 °C 1017.8 hPa Calm     74% 0 mm
18:25 14.2 °C 9.8 °C 1017.8 hPa Calm     75% 0 mm
18:30 13.7 °C 9.5 °C 1017.8 hPa Calm     76% 0 mm
18:40 12.9 °C 9 °C 1017.8 hPa Calm   4.8 km/h 77% 0 mm
18:45 12.8 °C 9.1 °C 1017.8 hPa Calm   1.6 km/h 78% 0 mm
18:50 12.6 °C 9.1 °C 1017.8 hPa Calm   1.6 km/h 79% 0 mm
18:55 12.4 °C 8.9 °C 1017.8 hPa Calm     79% 0 mm
19:00 12.3 °C 8.6 °C 1017.5 hPa Calm   1.6 km/h 78% 0 mm
19:05 12.2 °C 8.5 °C 1017.5 hPa Calm   4.8 km/h 78% 0 mm
19:10 12.2 °C 8.5 °C 1017.8 hPa Calm   8 km/h 78% 0 mm
19:15 12.2 °C 8.4 °C 1017.5 hPa Calm   8 km/h 78% 0 mm
19:20 12.2 °C 8.4 °C 1017.5 hPa Calm   1.6 km/h 78% 0 mm
19:25 12.2 °C 8.6 °C 1017.5 hPa Calm     79% 0 mm
19:30 12.1 °C 8.4 °C 1017.5 hPa Calm   4.8 km/h 78% 0 mm
19:35 12.1 °C 8.3 °C 1017.5 hPa Calm   4.8 km/h 78% 0 mm
19:40 11.9 °C 8.8 °C 1017.5 hPa Calm   1.6 km/h 81% 0 mm
19:45 11.8 °C 8.6 °C 1017.5 hPa Calm   3.2 km/h 81% 0 mm
19:50 11.7 °C 8.5 °C 1017.5 hPa Calm   4.8 km/h 81% 0 mm
19:55 11.7 °C 8.5 °C 1017.5 hPa Calm   4.8 km/h 81% 0 mm
20:00 11.7 °C 8.5 °C 1017.5 hPa Calm   4.8 km/h 81% 0 mm
20:05 11.7 °C 8.5 °C 1017.5 hPa Calm   1.6 km/h 81% 0 mm
20:10 11.6 °C 8.4 °C 1017.5 hPa Calm   4.8 km/h 81% 0 mm
20:15 11.7 °C 8.2 °C 1017.5 hPa SW 1.6 km/h 8 km/h 79% 0 mm
20:25 11.9 °C 8.2 °C 1017.5 hPa Calm   8 km/h 78% 0 mm
20:30 11.9 °C 8.2 °C 1017.2 hPa SW 1.6 km/h 8 km/h 78% 0 mm
20:35 12.1 °C 8.2 °C 1017.5 hPa Calm   8 km/h 77% 0 mm
20:40 12.1 °C 8 °C 1017.5 hPa SSW 1.6 km/h 8 km/h 76% 0 mm
20:45 12.2 °C 7.9 °C 1017.5 hPa SW 1.6 km/h 8 km/h 75% 0 mm
20:50 12.3 °C 8 °C 1017.2 hPa SSW 1.6 km/h 8 km/h 75% 0 mm
20:55 12.3 °C 7.6 °C 1017.2 hPa SSW 1.6 km/h 11.3 km/h 73% 0 mm
21:00 12.7 °C 7.6 °C 1017.2 hPa SSW 1.6 km/h 14.5 km/h 71% 0 mm
21:05 12.9 °C 7.6 °C 1016.8 hPa SE 1.6 km/h 14.5 km/h 70% 0 mm
21:10 12.9 °C 7.6 °C 1016.8 hPa Calm   14.5 km/h 70% 0 mm
21:15 12.9 °C 7.6 °C 1016.8 hPa SSW 1.6 km/h 9.7 km/h 70% 0 mm
21:20 12.8 °C 7.5 °C 1016.8 hPa Calm   9.7 km/h 70% 0 mm
21:25 12.8 °C 7.4 °C 1016.8 hPa Calm   6.4 km/h 70% 0 mm
21:35 12.7 °C 7.6 °C 1016.8 hPa Calm   8 km/h 71% 0 mm
21:40 12.5 °C 7.4 °C 1016.5 hPa Calm   9.7 km/h 71% 0 mm
21:45 12.4 °C 7.3 °C 1016.5 hPa Calm   9.7 km/h 71% 0 mm
21:50 12.5 °C 7.2 °C 1016.5 hPa SSW 3.2 km/h 9.7 km/h 70% 0 mm
21:55 12.6 °C 7.3 °C 1016.5 hPa Calm   9.7 km/h 70% 0 mm
22:00 12.7 °C 7.4 °C 1016.5 hPa SW 3.2 km/h 11.3 km/h 70% 0 mm
22:05 12.8 °C 7.5 °C 1016.1 hPa SW 1.6 km/h 11.3 km/h 70% 0 mm
22:10 12.8 °C 7.5 °C 1016.5 hPa Calm   9.7 km/h 70% 0 mm
22:15 12.8 °C 7.5 °C 1016.5 hPa Calm   9.7 km/h 70% 0 mm
22:20 12.8 °C 7.4 °C 1016.1 hPa SSW 1.6 km/h 11.3 km/h 70% 0 mm
22:25 12.8 °C 7.4 °C 1016.1 hPa SW 1.6 km/h 11.3 km/h 70% 0 mm
22:30 12.8 °C 7.7 °C 1016.1 hPa Calm   9.7 km/h 71% 0 mm
22:35 12.7 °C 7.4 °C 1016.5 hPa Calm   6.4 km/h 70% 0 mm
22:40 12.7 °C 7.6 °C 1016.5 hPa SW 1.6 km/h 11.3 km/h 71% 0 mm
22:45 12.7 °C 7.6 °C 1016.5 hPa Calm   11.3 km/h 71% 0 mm
22:50 12.7 °C 7.6 °C 1016.1 hPa Calm   8 km/h 71% 0 mm
22:55 12.7 °C 7.6 °C 1016.1 hPa Calm   19.3 km/h 71% 0 mm
23:00 12.8 °C 7.4 °C 1016.1 hPa SSW 1.6 km/h 19.3 km/h 70% 0 mm
23:05 12.9 °C 7.6 °C 1016.1 hPa SSW 4.8 km/h 14.5 km/h 70% 0 mm
23:10 13.1 °C 7.5 °C 1016.1 hPa SSW 3.2 km/h 14.5 km/h 69% 0 mm
23:15 13.2 °C 7.6 °C 1016.1 hPa Calm   12.9 km/h 69% 0 mm
23:20 13.2 °C 7.6 °C 1015.8 hPa Calm   11.3 km/h 69% 0 mm
23:25 13.2 °C 7.7 °C 1015.8 hPa Calm   12.9 km/h 69% 0 mm
23:30 13.2 °C 7.7 °C 1015.8 hPa SW 4.8 km/h 16.1 km/h 69% 0 mm
23:35 13.3 °C 7.6 °C 1015.8 hPa SSW 6.4 km/h 17.7 km/h 68% 0 mm
23:40 13.5 °C 7.5 °C 1015.8 hPa SSW 8 km/h 24.1 km/h 67% 0 mm
23:45 13.6 °C 7.6 °C 1015.8 hPa SSW 6.4 km/h 24.1 km/h 67% 0 mm
23:50 13.6 °C 7.6 °C 1015.8 hPa South 1.6 km/h 16.1 km/h 67% 0 mm
23:55 13.5 °C 7.5 °C 1015.8 hPa SW 6.4 km/h 17.7 km/h 67% 0 mm
Westford Weather
Compliments of Weather Underground

 
 
Current Radar Loop:

Copyright © WestfordWeather.net 2007-2014. All rights reserved.